Terminal Aerodrome Forecast
Issued by NWS Twin Cities, MN

Home | Current Version | Previous Version | Graphics & Text | Print | Product List | Glossary On
Versions: 1 2 3 4 5 6 7 8 9 10 11 12 13 14 15 16 17 18 19 20
000
FTUS43 KMPX 221100
TAFEAU
TAF
KEAU 221130Z 2212/2312 23010KT P6SM SCT015 BKN028
      TEMPO 2212/2215 BKN015
     FM221500 27013G19KT P6SM SCT015 BKN035
     FM221700 32014G21KT P6SM SCT035 SCT250
     FM230000 35007KT P6SM FEW250=

USA.gov is the U.S. government's official web portal to all federal, state and local government web resources and services.